This is the latest recevied weather packets stored in our database for station/object WW1TA. If no packets are shown the sender has not sent any weather packets the latest 1 day(s).
| Time | Temp. | Humidity | Pressure | Rain* | Wind** | Luminosity | Snow |
|---|---|---|---|---|---|---|---|
| 1778034486 | 16.67° C | 85% | 1019.3 hPa | 0 mm | - | 0 W/m² | - |
| 1778034184 | 16.67° C | 84% | 1019.3 hPa | 0 mm | - | 0 W/m² | - |
| 1778033882 | 16.67° C | 84% | 1019.1 hPa | 0 mm | - | 0 W/m² | - |
| 1778033578 | 16.67° C | 84% | 1019 hPa | 0 mm | - | 0 W/m² | - |
| 1778033275 | 16.67° C | 83% | 1019 hPa | 0 mm | - | 0 W/m² | - |
| 1778032973 | 16.67° C | 83% | 1019 hPa | 0 mm | - | 0 W/m² | - |
| 1778032670 | 16.67° C | 82% | 1019 hPa | 0 mm | - | 0 W/m² | - |
| 1778032367 | 17.22° C | 82% | 1018.7 hPa | 0 mm | - | 0 W/m² | - |
| 1778032064 | 17.22° C | 82% | 1018.6 hPa | 0 mm | - | 0 W/m² | - |
| 1778031761 | 17.22° C | 81% | 1018.7 hPa | 0 mm | - | 0 W/m² | - |
| 1778031458 | 17.22° C | 80% | 1018.7 hPa | 0 mm | - | 0 W/m² | - |
| 1778031155 | 17.78° C | 80% | 1018.6 hPa | 0 mm | - | 0 W/m² | - |
| 1778030246 | 17.78° C | 78% | 1018.8 hPa | 0 mm | - | 0 W/m² | - |
| 1778028731 | 18.89° C | 74% | 1018.5 hPa | 0 mm | - | 0 W/m² | - |
| 1778028427 | 18.89° C | 73% | 1018.5 hPa | 0 mm | - | 0 W/m² | - |
| 1778028125 | 18.89° C | 73% | 1018.5 hPa | 0 mm | - | 0 W/m² | - |
| 1778027517 | 19.44° C | 71% | 1018.6 hPa | 0 mm | - | 0 W/m² | - |
| 1778027213 | 19.44° C | 70% | 1018.8 hPa | 0 mm | - | 0 W/m² | - |
| 1778026605 | 20° C | 68% | 1018.8 hPa | 0 mm | - | 0 W/m² | - |
| 1778026303 | 20.56° C | 68% | 1018.7 hPa | 0 mm | - | 0 W/m² | - |
| 1778026000 | 20.56° C | 67% | 1018.7 hPa | 0 mm | - | 0 W/m² | - |
| 1778023578 | 22.78° C | 57% | 1018.4 hPa | 0 mm | - | 28 W/m² | - |
| 1778022671 | 22.78° C | 58% | 1018.6 hPa | 0 mm | - | 42 W/m² | - |
* Rain latest hour (hover to see other rain measurements)
** Current wind speed in m/s (hover to see current wind gust speed)